createdAt,value
2022-08-03T00:02:20.745Z,72.52
2022-08-03T00:04:49.520Z,72.81
2022-08-03T00:07:18.322Z,72.74
2022-08-03T00:09:48.431Z,73.25
2022-08-03T00:12:17.689Z,73.56
2022-08-03T00:14:46.825Z,74.47
2022-08-03T00:17:15.536Z,74.10
2022-08-03T00:19:44.232Z,71.82
2022-08-03T00:22:13.046Z,71.94
2022-08-03T00:24:41.847Z,71.90
2022-08-03T00:27:12.042Z,72.12
2022-08-03T00:29:59.718Z,72.69
2022-08-03T00:32:28.963Z,73.29
2022-08-03T00:34:59.064Z,73.88
2022-08-03T00:37:41.301Z,74.37
2022-08-03T00:40:13.453Z,75.49
2022-08-03T00:42:55.290Z,76.05
2022-08-03T00:45:25.636Z,75.15
2022-08-03T00:47:54.841Z,76.01
2022-08-03T00:50:25.130Z,76.50
2022-08-03T00:52:55.536Z,76.75
2022-08-03T00:55:24.971Z,75.33
2022-08-03T00:57:55.608Z,75.60
2022-08-03T01:00:26.008Z,75.20
2022-08-03T01:02:55.386Z,76.38
2022-08-03T01:05:24.307Z,74.52
2022-08-03T01:08:03.156Z,74.41
2022-08-03T01:10:39.029Z,73.12
2022-08-03T01:13:59.951Z,73.90
2022-08-03T01:16:11.691Z,75.46
2022-08-03T01:18:44.736Z,73.84
2022-08-03T01:21:16.055Z,73.67
2022-08-03T01:23:53.117Z,74.43
2022-08-03T01:26:46.886Z,75.42
2022-08-03T01:29:46.619Z,76.47
2022-08-03T01:33:02.687Z,77.49
2022-08-03T01:35:12.867Z,77.67
2022-08-03T01:37:45.135Z,77.87
2022-08-03T01:40:14.723Z,77.97
2022-08-03T01:42:44.756Z,78.46
2022-08-03T01:45:17.857Z,78.32
2022-08-03T01:47:48.748Z,78.50
2022-08-03T01:50:19.880Z,78.32
2022-08-03T01:52:49.396Z,78.12
2022-08-03T01:55:20.518Z,77.90
2022-08-03T01:58:05.892Z,78.00
2022-08-03T02:00:37.320Z,79.08
2022-08-03T02:03:08.501Z,79.25
2022-08-03T02:05:37.629Z,79.70
2022-08-03T02:08:08.030Z,79.51
2022-08-03T02:10:37.381Z,79.31
2022-08-03T02:13:08.767Z,77.99
2022-08-03T02:15:38.601Z,78.26
2022-08-03T02:18:10.404Z,78.27
2022-08-03T02:20:39.765Z,79.28
2022-08-03T02:23:08.753Z,79.26
2022-08-03T02:25:42.404Z,79.44
2022-08-03T02:28:13.057Z,80.28
2022-08-03T02:30:44.297Z,79.72
2022-08-03T02:33:20.626Z,78.94
2022-08-03T02:35:50.509Z,80.20
2022-08-03T02:38:21.521Z,80.80
2022-08-03T02:40:51.156Z,80.70
2022-08-03T02:43:21.705Z,80.23
2022-08-03T02:45:51.657Z,80.79
2022-08-03T02:48:24.054Z,80.63
2022-08-03T02:50:54.425Z,80.05
2022-08-03T02:53:23.829Z,80.10
2022-08-03T02:55:53.522Z,79.77
2022-08-03T02:58:22.705Z,79.82
2022-08-03T03:00:52.832Z,80.34
2022-08-03T03:03:23.422Z,80.63
2022-08-03T03:05:57.841Z,80.19
2022-08-03T03:08:29.249Z,80.35
2022-08-03T03:11:00.128Z,80.83
2022-08-03T03:13:29.624Z,80.29
2022-08-03T03:16:01.513Z,79.96
2022-08-03T03:18:32.450Z,80.19
2022-08-03T03:21:03.036Z,80.90
2022-08-03T03:23:32.407Z,81.38
2022-08-03T03:26:03.443Z,80.69
2022-08-03T03:28:33.045Z,80.26
2022-08-03T03:31:02.280Z,80.19
2022-08-03T03:33:32.431Z,80.97
2022-08-03T03:36:01.316Z,79.97
2022-08-03T03:38:30.425Z,80.40
2022-08-03T03:40:59.429Z,80.05
2022-08-03T03:43:29.710Z,79.57
2022-08-03T03:45:58.758Z,79.19
2022-08-03T03:48:27.652Z,79.82
2022-08-03T03:50:59.190Z,79.83
2022-08-03T03:53:27.891Z,80.12
2022-08-03T03:55:57.781Z,81.40
2022-08-03T03:58:32.363Z,81.84
2022-08-03T04:01:01.375Z,81.20
2022-08-03T04:03:30.225Z,80.79
2022-08-03T04:06:18.337Z,80.82
2022-08-03T04:09:13.388Z,81.63
2022-08-03T04:11:50.031Z,82.08
2022-08-03T04:14:21.045Z,79.95
2022-08-03T04:16:52.177Z,78.30
2022-08-03T04:19:24.856Z,78.56
2022-08-03T04:21:57.912Z,79.62
2022-08-03T04:24:29.711Z,78.47
2022-08-03T04:26:59.291Z,77.84
2022-08-03T04:29:30.625Z,78.41
2022-08-03T04:32:00.359Z,78.97
2022-08-03T04:34:29.341Z,78.92
2022-08-03T04:37:01.213Z,79.56
2022-08-03T04:39:32.694Z,79.66
2022-08-03T04:42:09.170Z,79.85
2022-08-03T04:44:39.480Z,79.75
2022-08-03T04:47:08.313Z,79.75
2022-08-03T04:49:38.397Z,79.82
2022-08-03T04:52:10.942Z,79.41
2022-08-03T04:54:48.836Z,79.25
2022-08-03T04:57:23.174Z,79.55
2022-08-03T05:00:01.433Z,79.76
2022-08-03T05:02:31.929Z,80.52
2022-08-03T05:05:01.079Z,80.01
2022-08-03T05:07:36.144Z,79.94
2022-08-03T05:10:15.138Z,79.07
2022-08-03T05:12:46.670Z,78.96
2022-08-03T05:15:15.935Z,78.71
2022-08-03T05:17:44.862Z,77.97
2022-08-03T05:20:13.652Z,78.40
2022-08-03T05:22:46.848Z,78.91
2022-08-03T05:25:17.757Z,78.22
2022-08-03T05:27:49.603Z,76.84
2022-08-03T05:30:30.382Z,76.85
2022-08-03T05:33:04.021Z,77.21
2022-08-03T05:36:02.676Z,76.09
2022-08-03T05:38:28.471Z,74.14
2022-08-03T05:41:23.610Z,72.38
2022-08-03T05:43:47.390Z,71.09
2022-08-03T05:46:16.667Z,67.78
2022-08-03T05:48:45.816Z,66.92
2022-08-03T05:51:14.820Z,67.20
2022-08-03T05:53:46.022Z,67.55
2022-08-03T05:56:16.231Z,67.75
2022-08-03T05:58:46.576Z,67.18
2022-08-03T06:01:16.104Z,68.15
2022-08-03T06:03:45.449Z,68.01
2022-08-03T06:06:14.843Z,68.96
2022-08-03T06:08:45.554Z,69.90
2022-08-03T06:11:14.524Z,69.05
2022-08-03T06:13:43.635Z,69.64
2022-08-03T06:16:12.728Z,70.21
2022-08-03T06:18:41.776Z,70.35
2022-08-03T06:21:14.712Z,69.88
2022-08-03T06:23:53.927Z,69.44
2022-08-03T06:26:25.962Z,68.77
2022-08-03T06:28:55.462Z,68.64
2022-08-03T06:31:33.435Z,68.76
2022-08-03T06:34:32.872Z,68.54
2022-08-03T06:36:53.285Z,68.65
2022-08-03T06:39:23.955Z,68.48
2022-08-03T06:41:53.881Z,68.28
2022-08-03T06:44:22.687Z,68.27
2022-08-03T06:46:51.844Z,67.78
2022-08-03T06:49:21.278Z,67.90
2022-08-03T06:52:03.528Z,67.39
2022-08-03T06:54:39.538Z,66.88
2022-08-03T06:57:09.680Z,66.49
2022-08-03T07:00:06.557Z,65.99
2022-08-03T07:02:28.262Z,66.75
2022-08-03T07:04:58.737Z,65.01
2022-08-03T07:07:27.570Z,64.24
2022-08-03T07:09:58.517Z,64.64
2022-08-03T07:12:28.408Z,64.13
2022-08-03T07:15:01.404Z,63.41
2022-08-03T07:17:32.494Z,63.13
2022-08-03T07:20:02.393Z,61.05
2022-08-03T07:22:31.219Z,61.67
2022-08-03T07:25:01.996Z,60.92
2022-08-03T07:27:30.849Z,60.37
2022-08-03T07:30:00.144Z,58.33
2022-08-03T07:32:31.397Z,58.59
2022-08-03T07:35:01.676Z,56.06
2022-08-03T07:37:31.784Z,57.30
2022-08-03T07:40:02.830Z,54.58
2022-08-03T07:42:31.933Z,53.08
2022-08-03T07:45:01.258Z,53.30
2022-08-03T07:47:34.909Z,53.78
2022-08-03T07:50:08.722Z,52.23
2022-08-03T07:52:50.761Z,51.00
2022-08-03T07:55:22.327Z,50.86
2022-08-03T07:58:04.984Z,52.21
2022-08-03T08:00:34.160Z,48.91
2022-08-03T08:03:02.967Z,48.76
2022-08-03T08:05:31.750Z,49.00
2022-08-03T08:08:00.827Z,50.08
2022-08-03T08:10:31.245Z,49.32
2022-08-03T08:13:00.249Z,46.97
2022-08-03T08:15:30.194Z,46.41
2022-08-03T08:18:01.045Z,44.73
2022-08-03T08:20:32.862Z,44.57
2022-08-03T08:23:09.608Z,44.61
2022-08-03T08:25:57.537Z,45.97
2022-08-03T08:28:32.370Z,44.90
2022-08-03T08:31:06.672Z,45.66
2022-08-03T08:34:02.179Z,42.82
2022-08-03T08:36:25.470Z,43.93
2022-08-03T08:38:54.307Z,43.25
2022-08-03T08:41:32.119Z,41.88
2022-08-03T08:44:01.495Z,41.29
2022-08-03T08:46:34.023Z,41.79
2022-08-03T08:49:04.709Z,38.99
2022-08-03T08:51:54.459Z,41.49
2022-08-03T08:54:27.289Z,40.81
2022-08-03T08:56:59.571Z,40.88
2022-08-03T08:59:47.877Z,40.83
2022-08-03T09:02:17.729Z,40.32
2022-08-03T09:04:48.760Z,40.43
2022-08-03T09:07:20.467Z,39.28
2022-08-03T09:10:12.078Z,37.54
2022-08-03T09:12:42.739Z,38.51
2022-08-03T09:15:19.767Z,38.61
2022-08-03T09:17:51.117Z,38.13
2022-08-03T09:20:21.625Z,39.48
2022-08-03T09:22:53.699Z,38.25
2022-08-03T09:25:28.959Z,38.61
2022-08-03T09:28:10.393Z,37.29
2022-08-03T09:30:41.125Z,39.12
2022-08-03T09:33:11.128Z,36.40
2022-08-03T09:35:58.812Z,37.24
2022-08-03T09:38:27.736Z,35.66
2022-08-03T09:41:00.219Z,36.34
2022-08-03T09:43:47.192Z,36.76
2022-08-03T09:46:16.131Z,35.24
2022-08-03T09:48:44.842Z,35.69
2022-08-03T09:52:22.991Z,36.74
2022-08-03T09:54:07.598Z,35.93
2022-08-03T09:56:44.552Z,35.37
2022-08-03T09:59:24.011Z,31.86
2022-08-03T10:01:53.404Z,33.66
2022-08-03T10:04:22.783Z,34.65
2022-08-03T10:07:12.229Z,36.33
2022-08-03T10:09:55.394Z,34.15
2022-08-03T10:12:24.486Z,33.44
2022-08-03T10:14:55.198Z,31.15
2022-08-03T10:17:24.585Z,31.26
2022-08-03T10:19:53.360Z,31.75
2022-08-03T10:22:24.274Z,33.06
2022-08-03T10:24:55.175Z,31.62
2022-08-03T10:27:25.125Z,29.70
2022-08-03T10:29:57.357Z,28.83
2022-08-03T10:32:30.443Z,32.33
2022-08-03T10:35:19.929Z,28.70
2022-08-03T10:37:56.885Z,29.91
2022-08-03T10:43:20.926Z,30.39
2022-08-03T10:45:52.392Z,31.24
2022-08-03T10:48:21.929Z,31.06
2022-08-03T10:50:51.056Z,30.97
2022-08-03T10:53:35.460Z,29.64
2022-08-03T10:56:35.447Z,28.33
2022-08-03T10:59:12.128Z,31.83
2022-08-03T11:02:00.745Z,29.32
2022-08-03T11:04:31.066Z,28.23
2022-08-03T11:07:22.670Z,28.69
2022-08-03T11:10:07.732Z,29.31
2022-08-03T11:12:39.345Z,30.02
2022-08-03T11:15:09.591Z,28.86
2022-08-03T11:18:27.642Z,28.88
2022-08-03T11:20:58.237Z,31.85
2022-08-03T11:24:04.128Z,32.27
2022-08-03T11:26:33.435Z,30.12
2022-08-03T11:29:29.792Z,30.53
2022-08-03T11:32:20.242Z,29.40
2022-08-03T11:35:13.086Z,29.57
2022-08-03T11:38:10.465Z,29.58
2022-08-03T11:40:44.381Z,32.16
2022-08-03T11:43:48.889Z,29.37
2022-08-03T11:46:28.693Z,28.87
2022-08-03T11:49:10.519Z,28.25
2022-08-03T11:51:44.174Z,32.53
2022-08-03T11:54:13.311Z,30.58
2022-08-03T11:56:46.710Z,29.43
2022-08-03T11:59:20.622Z,31.54
2022-08-03T12:01:50.742Z,31.99
2022-08-03T12:04:19.761Z,31.55
2022-08-03T12:07:03.563Z,31.80
2022-08-03T12:09:34.411Z,31.15
2022-08-03T12:12:03.553Z,30.60
2022-08-03T12:14:49.992Z,31.87
2022-08-03T12:17:21.562Z,31.27
2022-08-03T12:19:50.558Z,28.45
2022-08-03T12:22:32.383Z,30.89
2022-08-03T12:25:01.157Z,29.62
2022-08-03T12:27:30.164Z,30.90
2022-08-03T12:29:59.931Z,30.35
2022-08-03T12:32:30.032Z,31.24
2022-08-03T12:35:01.634Z,30.50
2022-08-03T12:37:32.664Z,30.21
2022-08-03T12:40:09.994Z,31.39
2022-08-03T12:42:41.073Z,33.25
2022-08-03T12:45:20.047Z,30.48
2022-08-03T12:47:57.110Z,30.22
2022-08-03T12:50:31.575Z,28.82
2022-08-03T12:53:03.039Z,28.51
2022-08-03T12:55:56.508Z,28.70
2022-08-03T12:58:34.942Z,28.85
2022-08-03T13:01:09.758Z,31.20
2022-08-03T13:03:45.855Z,31.46
2022-08-03T13:06:20.228Z,30.73
2022-08-03T13:08:51.697Z,30.04
2022-08-03T13:11:55.809Z,28.76
2022-08-03T13:14:16.719Z,30.50
2022-08-03T13:16:49.683Z,30.93
2022-08-03T13:19:18.543Z,32.81
2022-08-03T13:22:01.706Z,29.66
2022-08-03T13:24:34.824Z,28.27
2022-08-03T13:28:01.758Z,29.05
2022-08-03T13:29:54.199Z,28.69
2022-08-03T13:32:23.549Z,28.84
2022-08-03T13:34:52.358Z,29.65
2022-08-03T13:37:22.109Z,28.27
2022-08-03T13:39:59.605Z,29.13
2022-08-03T13:42:30.874Z,27.93
2022-08-03T13:44:59.710Z,28.55
2022-08-03T13:47:28.774Z,29.21
2022-08-03T13:50:01.197Z,28.87
2022-08-03T13:52:35.679Z,29.04
2022-08-03T13:55:07.817Z,29.66
2022-08-03T13:58:02.872Z,28.96
2022-08-03T14:00:29.030Z,28.84
2022-08-03T14:03:13.645Z,29.39
2022-08-03T14:05:43.930Z,29.77
2022-08-03T14:08:13.623Z,27.94
2022-08-03T14:10:45.831Z,29.32
2022-08-03T14:13:16.664Z,27.56
2022-08-03T14:15:49.717Z,28.35
2022-08-03T14:18:27.789Z,28.44
2022-08-03T14:21:03.410Z,26.83
2022-08-03T14:23:34.706Z,27.92
2022-08-03T14:26:05.576Z,28.74
2022-08-03T14:28:34.490Z,28.67
2022-08-03T14:31:03.905Z,29.62
2022-08-03T14:33:37.403Z,27.78
2022-08-03T14:36:06.874Z,29.32
2022-08-03T14:38:35.795Z,31.17
2022-08-03T14:41:06.092Z,30.97
2022-08-03T14:43:40.998Z,29.42
2022-08-03T14:46:30.713Z,28.58
2022-08-03T14:50:33.699Z,27.53
2022-08-03T14:51:53.519Z,28.62
2022-08-03T14:54:23.623Z,27.81
2022-08-03T14:56:53.885Z,27.96
2022-08-03T14:59:22.697Z,28.87
2022-08-03T15:02:02.239Z,30.35
2022-08-03T15:04:33.035Z,29.63
2022-08-03T15:07:02.007Z,34.12
2022-08-03T15:09:30.731Z,32.15
2022-08-03T15:12:00.924Z,31.66
2022-08-03T15:14:38.650Z,33.81
2022-08-03T15:17:07.718Z,32.68
2022-08-03T15:20:03.241Z,28.71
2022-08-03T15:22:34.615Z,31.27
2022-08-03T15:26:02.223Z,29.28
2022-08-03T15:28:03.718Z,29.32
2022-08-03T15:30:36.058Z,30.07
2022-08-03T15:33:05.207Z,31.78
2022-08-03T15:35:34.084Z,35.71
2022-08-03T15:38:08.689Z,39.48
2022-08-03T15:40:38.151Z,31.45
2022-08-03T15:43:08.289Z,29.76
2022-08-03T15:45:37.180Z,28.84
2022-08-03T15:48:06.431Z,29.72
2022-08-03T15:50:35.540Z,31.11
2022-08-03T15:53:04.837Z,30.92
2022-08-03T15:55:33.813Z,35.03
2022-08-03T15:59:04.856Z,29.39
2022-08-03T16:00:53.060Z,36.92
2022-08-03T16:03:21.825Z,33.98
2022-08-03T16:05:50.609Z,31.87
2022-08-03T16:08:19.451Z,30.36
2022-08-03T16:10:48.590Z,29.59
2022-08-03T16:13:21.660Z,34.04
2022-08-03T16:16:11.755Z,31.22
2022-08-03T16:18:40.505Z,29.93
2022-08-03T16:21:09.465Z,29.36
2022-08-03T16:23:48.825Z,31.40
2022-08-03T16:26:17.569Z,30.21
2022-08-03T16:28:46.325Z,30.79
2022-08-03T16:31:17.041Z,32.74
2022-08-03T16:33:45.823Z,30.95
2022-08-03T16:36:14.639Z,32.60
2022-08-03T16:38:43.357Z,31.46
2022-08-03T16:41:12.178Z,34.78
2022-08-03T16:43:40.960Z,31.30
2022-08-03T16:46:09.681Z,32.47
2022-08-03T16:48:40.398Z,33.06
2022-08-03T16:51:09.192Z,31.03
2022-08-03T16:54:07.533Z,34.05
2022-08-03T16:56:26.810Z,32.55
2022-08-03T16:58:55.594Z,31.24
2022-08-03T17:01:25.074Z,31.35
2022-08-03T17:04:06.058Z,30.65
2022-08-03T17:06:37.157Z,32.14
2022-08-03T17:09:08.939Z,32.58
2022-08-03T17:11:46.766Z,32.29
2022-08-03T17:14:17.293Z,32.25
2022-08-03T17:16:54.256Z,32.12
2022-08-03T17:19:26.419Z,32.88
2022-08-03T17:22:04.183Z,32.16
2022-08-03T17:24:35.285Z,34.94
2022-08-03T17:27:09.283Z,33.55
2022-08-03T17:30:00.985Z,33.87
2022-08-03T17:32:33.029Z,34.49
2022-08-03T17:35:06.459Z,32.57
2022-08-03T17:37:58.190Z,33.38
2022-08-03T17:40:26.152Z,35.33
2022-08-03T17:42:55.754Z,33.70
2022-08-03T17:45:24.552Z,34.63
2022-08-03T17:48:18.609Z,34.53
2022-08-03T17:50:55.581Z,35.71
2022-08-03T17:53:29.477Z,32.67
2022-08-03T17:56:38.789Z,32.51
2022-08-03T17:59:01.957Z,31.95
2022-08-03T18:02:08.962Z,33.31
2022-08-03T18:04:43.368Z,35.20
2022-08-03T18:07:41.036Z,36.31
2022-08-03T18:10:15.106Z,35.44
2022-08-03T18:12:51.817Z,35.94
2022-08-03T18:15:27.042Z,34.49
2022-08-03T18:18:02.951Z,34.47
2022-08-03T18:20:42.692Z,34.44
2022-08-03T18:23:25.121Z,35.31
2022-08-03T18:26:07.795Z,38.19
2022-08-03T18:28:41.758Z,36.09
2022-08-03T18:31:12.900Z,36.05
2022-08-03T18:34:16.858Z,37.72
2022-08-03T18:36:54.796Z,38.56
2022-08-03T18:39:26.573Z,38.64
2022-08-03T18:41:55.437Z,37.86
2022-08-03T18:44:53.358Z,37.57
2022-08-03T18:47:50.841Z,39.78
2022-08-03T18:50:20.859Z,39.86
2022-08-03T18:52:54.165Z,41.34
2022-08-03T18:55:33.086Z,41.29
2022-08-03T18:58:15.977Z,39.67
2022-08-03T19:00:54.585Z,39.03
2022-08-03T19:03:42.925Z,41.14
2022-08-03T19:06:19.902Z,42.71
2022-08-03T19:08:51.930Z,42.63
2022-08-03T19:11:27.883Z,41.90
2022-08-03T19:14:02.189Z,41.59
2022-08-03T19:16:34.326Z,42.13
2022-08-03T19:19:03.591Z,41.79
2022-08-03T19:21:36.559Z,41.95
2022-08-03T19:24:10.128Z,43.08
2022-08-03T19:26:41.542Z,43.27
2022-08-03T19:29:15.026Z,42.84
2022-08-03T19:31:59.089Z,43.85
2022-08-03T19:34:29.794Z,43.21
2022-08-03T19:36:59.187Z,44.06
2022-08-03T19:39:28.614Z,43.62
2022-08-03T19:42:10.082Z,44.04
2022-08-03T19:44:52.490Z,44.03
2022-08-03T19:47:27.152Z,45.20
2022-08-03T19:50:05.128Z,45.38
2022-08-03T19:52:36.440Z,46.65
2022-08-03T19:55:09.531Z,46.70
2022-08-03T19:57:46.140Z,45.92
2022-08-03T20:00:26.537Z,47.34
2022-08-03T20:02:59.862Z,44.39
2022-08-03T20:05:28.664Z,44.80
2022-08-03T20:08:14.545Z,44.34
2022-08-03T20:10:43.351Z,46.28
2022-08-03T20:13:19.497Z,45.46
2022-08-03T20:15:48.781Z,45.55
2022-08-03T20:18:22.400Z,45.56
2022-08-03T20:20:53.301Z,46.48
2022-08-03T20:23:22.903Z,45.98
2022-08-03T20:25:57.300Z,48.33
2022-08-03T20:28:32.406Z,49.48
2022-08-03T20:31:01.963Z,50.46
2022-08-03T20:33:50.284Z,47.86
2022-08-03T20:36:19.477Z,46.94
2022-08-03T20:38:49.522Z,46.57
2022-08-03T20:41:20.957Z,46.56
2022-08-03T20:43:51.273Z,46.68
2022-08-03T20:46:35.316Z,46.23
2022-08-03T20:49:07.401Z,46.79
2022-08-03T20:51:50.471Z,46.64
2022-08-03T20:54:31.273Z,47.44
2022-08-03T20:57:03.871Z,47.20
2022-08-03T20:59:50.154Z,48.08
2022-08-03T21:02:29.864Z,49.69
2022-08-03T21:05:03.181Z,49.47
2022-08-03T21:08:03.822Z,49.43
2022-08-03T21:10:31.725Z,49.88
2022-08-03T21:13:16.409Z,49.70
2022-08-03T21:16:06.099Z,49.31
2022-08-03T21:18:47.280Z,49.79
2022-08-03T21:21:17.985Z,49.69
2022-08-03T21:23:49.894Z,49.88
2022-08-03T21:26:20.342Z,50.27
2022-08-03T21:28:50.248Z,50.16
2022-08-03T21:31:24.599Z,50.04
2022-08-03T21:33:57.403Z,51.12
2022-08-03T21:36:27.737Z,51.75
2022-08-03T21:38:57.813Z,51.80
2022-08-03T21:41:30.554Z,52.01
2022-08-03T21:44:00.109Z,52.70
2022-08-03T21:46:31.896Z,52.34
2022-08-03T21:50:05.660Z,52.37
2022-08-03T21:51:51.577Z,52.23
2022-08-03T21:54:21.395Z,51.77
2022-08-03T21:56:52.358Z,51.84
2022-08-03T21:59:21.733Z,52.40
2022-08-03T22:01:55.355Z,53.47
2022-08-03T22:04:55.494Z,54.00
2022-08-03T22:07:17.060Z,53.37
2022-08-03T22:09:51.304Z,52.90
2022-08-03T22:12:24.471Z,52.76
2022-08-03T22:15:00.849Z,51.96
2022-08-03T22:17:54.957Z,51.87
2022-08-03T22:20:23.609Z,52.22
2022-08-03T22:22:56.952Z,53.08
2022-08-03T22:25:29.868Z,53.75
2022-08-03T22:28:00.901Z,53.81
2022-08-03T22:30:31.652Z,54.01
2022-08-03T22:33:12.748Z,54.64
2022-08-03T22:35:47.495Z,54.07
2022-08-03T22:38:18.136Z,55.14
2022-08-03T22:40:48.866Z,54.39
2022-08-03T22:43:17.697Z,55.14
2022-08-03T22:46:11.253Z,55.69
2022-08-03T22:48:41.424Z,56.43
2022-08-03T22:51:11.226Z,56.03
2022-08-03T22:53:41.152Z,56.25
2022-08-03T22:56:10.000Z,56.26
2022-08-03T22:58:38.739Z,56.56
2022-08-03T23:01:09.194Z,54.32
2022-08-03T23:04:00.341Z,54.42
2022-08-03T23:06:34.407Z,54.49
2022-08-03T23:09:08.644Z,53.91
2022-08-03T23:11:45.306Z,54.59
2022-08-03T23:14:16.800Z,55.46
2022-08-03T23:16:46.833Z,56.06
2022-08-03T23:19:25.505Z,56.44
2022-08-03T23:22:02.456Z,57.36
2022-08-03T23:24:36.152Z,58.78
2022-08-03T23:27:07.368Z,59.34
2022-08-03T23:29:37.323Z,60.68
2022-08-03T23:32:07.112Z,59.71
2022-08-03T23:34:57.270Z,59.36
2022-08-03T23:37:26.817Z,59.15
2022-08-03T23:39:56.189Z,59.14
2022-08-03T23:42:25.315Z,58.86
2022-08-03T23:44:56.441Z,58.78
2022-08-03T23:47:46.840Z,58.72
2022-08-03T23:50:18.622Z,59.31
2022-08-03T23:52:55.730Z,58.58
2022-08-03T23:55:34.404Z,58.65
2022-08-03T23:58:10.649Z,59.68
